Time;durP1;ratioP1;P1;durP2;ratioP2;P2;SDS_P1;SDS_P2;PMS_P1;PMS_P2;Temp;Humidity;BMP_temperature;BMP_pressure;BME280_temperature;BME280_humidity;BME280_pressure;Samples;Min_cycle;Max_cycle;Signal;HPM_P1;HPM_P2
2021/08/13 00:00:49;;;;;;;15.57;12.13;;;24.20;69.40;;;;;;4207090;28;20047;-63
2021/08/13 00:03:13;;;;;;;9.93;7.47;;;24.20;69.40;;;;;;4207530;28;20044;-64
2021/08/13 00:05:35;;;;;;;3.50;3.20;;;24.20;69.50;;;;;;4207777;28;20109;-63
2021/08/13 00:07:58;;;;;;;3.72;3.42;;;24.20;69.40;;;;;;4194415;28;20117;-63
2021/08/13 00:10:21;;;;;;;3.88;3.58;;;24.20;69.30;;;;;;4207033;28;20056;-63
2021/08/13 00:12:42;;;;;;;7.03;5.35;;;24.20;69.40;;;;;;4207355;28;20090;-63
2021/08/13 00:15:06;;;;;;;3.45;3.25;;;24.20;69.50;;;;;;4191074;28;20143;-64
2021/08/13 00:17:29;;;;;;;6.47;5.72;;;24.20;69.50;;;;;;4207250;28;20409;-64
2021/08/13 00:19:51;;;;;;;7.10;6.15;;;24.20;70.60;;;;;;4207395;28;20418;-64
2021/08/13 00:22:13;;;;;;;4.43;4.13;;;24.20;69.80;;;;;;4206111;28;20056;-63
2021/08/13 00:24:36;;;;;;;3.92;3.63;;;24.10;69.60;;;;;;4207606;28;20466;-64
2021/08/13 00:26:58;;;;;;;5.85;5.35;;;24.10;69.70;;;;;;4207732;28;20509;-64
2021/08/13 00:29:21;;;;;;;5.47;4.97;;;24.10;69.70;;;;;;4207544;28;20055;-64
2021/08/13 00:31:43;;;;;;;4.65;4.25;;;24.10;69.70;;;;;;4207745;28;20131;-64
2021/08/13 00:34:05;;;;;;;3.17;3.00;;;24.10;69.80;;;;;;4189985;28;20056;-64
2021/08/13 00:36:28;;;;;;;3.63;2.60;;;24.10;69.80;;;;;;4191214;28;20438;-64
2021/08/13 00:38:52;;;;;;;4.78;2.80;;;24.10;69.80;;;;;;4191933;28;20071;-64
2021/08/13 00:41:15;;;;;;;2.97;2.67;;;24.10;69.80;;;;;;4206362;28;20071;-64
2021/08/13 00:43:39;;;;;;;2.97;2.78;;;24.10;69.80;;;;;;4186630;28;20539;-65
2021/08/13 00:46:01;;;;;;;2.78;2.65;;;24.10;69.80;;;;;;4204745;28;20773;-64
2021/08/13 00:48:33;;;;;;;2.80;2.60;;;24.10;69.80;;;;;;4190626;28;20052;-64
2021/08/13 00:51:10;;;;;;;3.60;3.13;;;24.10;69.90;;;;;;4207187;28;20094;-65
2021/08/13 00:53:32;;;;;;;2.55;2.45;;;24.00;70.10;;;;;;4190231;28;20132;-63
2021/08/13 00:55:57;;;;;;;2.95;2.60;;;24.10;70.30;;;;;;4191522;28;20483;-63
2021/08/13 00:58:32;;;;;;;2.35;2.25;;;24.00;70.10;;;;;;4193797;28;20113;-64
2021/08/13 01:01:21;;;;;;;2.70;2.60;;;24.00;70.30;;;;;;4209811;28;20444;-63
2021/08/13 01:03:44;;;;;;;4.07;3.65;;;24.00;70.40;;;;;;4194663;28;20102;-64
2021/08/13 01:06:08;;;;;;;3.50;3.03;;;24.00;71.20;;;;;;4194521;28;20067;-64
2021/08/13 01:08:30;;;;;;;2.80;2.70;;;24.00;70.30;;;;;;4194331;28;20052;-64
2021/08/13 01:11:10;;;;;;;2.90;2.70;;;24.00;70.30;;;;;;4194487;28;20048;-64
2021/08/13 01:13:45;;;;;;;3.65;3.35;;;23.90;70.20;;;;;;4193844;28;20481;-64
2021/08/13 01:16:07;;;;;;;3.42;3.22;;;23.90;70.00;;;;;;4191213;28;20518;-64
2021/08/13 01:18:34;;;;;;;3.33;3.13;;;24.00;70.30;;;;;;4178004;28;20051;-64
2021/08/13 01:21:28;;;;;;;3.22;3.03;;;23.90;70.20;;;;;;4177855;28;20104;-62
2021/08/13 01:23:56;;;;;;;2.80;2.70;;;23.90;70.10;;;;;;4188465;28;20049;-63
2021/08/13 01:26:21;;;;;;;3.33;3.03;;;23.90;70.40;;;;;;4191878;28;20518;-63
2021/08/13 01:29:02;;;;;;;3.47;3.25;;;23.90;70.40;;;;;;4203237;28;20134;-64
2021/08/13 01:31:27;;;;;;;3.60;3.40;;;23.90;70.00;;;;;;4194069;28;20482;-64
2021/08/13 01:33:56;;;;;;;4.13;3.72;;;23.90;70.40;;;;;;4193757;28;20506;-64
2021/08/13 01:36:19;;;;;;;3.97;3.70;;;23.90;71.20;;;;;;4194002;28;20469;-64
2021/08/13 01:38:43;;;;;;;3.53;3.33;;;23.80;70.40;;;;;;4194204;28;20080;-64
2021/08/13 01:41:08;;;;;;;3.70;3.40;;;23.80;70.40;;;;;;4193998;28;20059;-64
2021/08/13 01:43:35;;;;;;;4.03;3.65;;;23.80;70.30;;;;;;4193098;28;20068;-64
2021/08/13 01:45:59;;;;;;;3.47;3.28;;;23.80;70.40;;;;;;4194085;28;20052;-64
2021/08/13 01:48:26;;;;;;;4.38;3.95;;;23.80;70.40;;;;;;4184231;28;20052;-64
2021/08/13 01:50:51;;;;;;;3.58;3.35;;;23.80;70.30;;;;;;4193508;28;20056;-64
2021/08/13 01:53:19;;;;;;;4.32;3.60;;;23.80;70.20;;;;;;4183400;28;20061;-64
2021/08/13 01:55:43;;;;;;;3.95;3.65;;;23.80;70.10;;;;;;4208177;28;20052;-64
2021/08/13 01:58:07;;;;;;;3.90;3.70;;;23.80;70.30;;;;;;4207960;28;20079;-63
2021/08/13 02:00:30;;;;;;;4.15;3.85;;;23.80;70.40;;;;;;4207599;28;20048;-64
2021/08/13 02:02:53;;;;;;;4.03;3.72;;;23.80;70.50;;;;;;4191253;28;20711;-63
2021/08/13 02:05:19;;;;;;;5.18;4.68;;;23.80;70.50;;;;;;4191857;28;20054;-64
2021/08/13 02:07:43;;;;;;;3.80;3.50;;;23.80;70.50;;;;;;4193346;28;20080;-64
2021/08/13 02:10:06;;;;;;;3.40;3.20;;;23.80;70.50;;;;;;4192541;28;20054;-64
2021/08/13 02:12:29;;;;;;;4.03;3.72;;;23.70;70.30;;;;;;4190374;28;20048;-64
2021/08/13 02:14:51;;;;;;;3.63;3.33;;;23.70;70.40;;;;;;4190897;28;20089;-64
2021/08/13 02:17:18;;;;;;;3.78;3.58;;;23.80;70.50;;;;;;4189589;28;20083;-64
2021/08/13 02:19:48;;;;;;;3.67;3.47;;;23.80;70.40;;;;;;4200863;28;20098;-64
2021/08/13 02:22:10;;;;;;;3.63;3.33;;;23.70;70.30;;;;;;4178759;28;20045;-64
2021/08/13 02:24:34;;;;;;;3.13;2.92;;;23.70;70.60;;;;;;4193337;28;20132;-64
2021/08/13 02:27:04;;;;;;;;;;;23.70;70.40;;;;;;4193295;28;20052;-64
2021/08/13 02:29:27;;;;;;;4.15;3.85;;;23.70;71.20;;;;;;4205805;28;19920;-64
2021/08/13 02:31:52;;;;;;;3.72;3.47;;;23.60;70.90;;;;;;4188480;28;20460;-63
2021/08/13 02:34:14;;;;;;;4.82;4.35;;;23.60;70.70;;;;;;4193308;28;20076;-64
2021/08/13 02:36:45;;;;;;;3.75;3.45;;;23.70;70.60;;;;;;4193149;28;20062;-64
2021/08/13 02:39:12;;;;;;;3.58;3.38;;;23.60;70.30;;;;;;4192947;28;20052;-64
2021/08/13 02:41:40;;;;;;;3.83;3.63;;;23.60;71.20;;;;;;4193077;28;20082;-64
2021/08/13 02:44:05;;;;;;;4.57;4.18;;;23.70;71.30;;;;;;4176187;28;20064;-64
2021/08/13 02:46:34;;;;;;;3.80;3.60;;;23.60;70.50;;;;;;4176368;28;20051;-64
2021/08/13 02:49:02;;;;;;;4.63;4.18;;;23.60;70.40;;;;;;4176183;28;20060;-64
2021/08/13 02:51:28;;;;;;;5.05;4.63;;;23.60;70.60;;;;;;4189615;28;20457;-64
2021/08/13 02:53:55;;;;;;;4.93;4.63;;;23.60;70.70;;;;;;4192098;28;20406;-62
2021/08/13 02:56:19;;;;;;;4.22;3.83;;;23.60;70.80;;;;;;4192489;28;20044;-63
2021/08/13 02:58:46;;;;;;;4.78;4.47;;;23.60;71.40;;;;;;4205467;28;20178;-63
2021/08/13 03:01:09;;;;;;;4.20;3.90;;;23.60;70.70;;;;;;4160844;28;20435;-63
2021/08/13 03:03:32;;;;;;;3.70;3.50;;;23.60;70.80;;;;;;4175897;28;20136;-63
2021/08/13 03:05:55;;;;;;;4.60;4.20;;;23.60;70.80;;;;;;4191599;28;20044;-64
2021/08/13 03:08:20;;;;;;;6.68;6.10;;;23.50;70.80;;;;;;4190162;28;20109;-64
2021/08/13 03:10:42;;;;;;;5.95;5.28;;;23.60;70.80;;;;;;4190405;28;20556;-64
2021/08/13 03:13:06;;;;;;;6.07;5.47;;;23.60;70.80;;;;;;4206464;28;20181;-64
2021/08/13 03:15:31;;;;;;;6.30;5.70;;;23.50;70.80;;;;;;4206807;28;20134;-64
2021/08/13 03:17:54;;;;;;;5.65;5.25;;;23.50;70.70;;;;;;4206905;28;20050;-65
2021/08/13 03:20:17;;;;;;;5.40;5.00;;;23.50;71.80;;;;;;4206473;28;20490;-64
2021/08/13 03:22:54;;;;;;;5.97;5.50;;;23.50;70.90;;;;;;4206579;28;20048;-63
2021/08/13 03:25:16;;;;;;;5.80;5.30;;;23.50;71.10;;;;;;4206799;28;20078;-64
2021/08/13 03:27:41;;;;;;;5.72;5.22;;;23.50;71.10;;;;;;4206179;28;20109;-64
2021/08/13 03:30:07;;;;;;;5.68;5.28;;;23.50;71.10;;;;;;4206665;28;20141;-63
2021/08/13 03:32:32;;;;;;;5.90;5.50;;;23.50;71.10;;;;;;4206277;28;20044;-62
2021/08/13 03:34:54;;;;;;;6.18;5.68;;;23.50;71.30;;;;;;4175543;28;20072;-63
2021/08/13 03:37:16;;;;;;;6.05;5.55;;;23.50;71.20;;;;;;4190923;28;20051;-63
2021/08/13 03:39:38;;;;;;;6.20;5.70;;;23.50;71.20;;;;;;4192527;28;20041;-63
2021/08/13 03:42:00;;;;;;;6.45;5.78;;;23.50;71.10;;;;;;4191863;28;20418;-63
2021/08/13 03:44:23;;;;;;;6.25;5.75;;;23.50;71.20;;;;;;4192023;28;20060;-64
2021/08/13 03:46:48;;;;;;;6.55;6.05;;;23.50;71.20;;;;;;4192331;28;20584;-64
2021/08/13 03:49:12;;;;;;;6.05;5.55;;;23.40;71.90;;;;;;4207418;28;20051;-63
2021/08/13 03:51:34;;;;;;;6.40;5.90;;;23.40;71.90;;;;;;4207354;28;20051;-63
2021/08/13 03:53:57;;;;;;;6.07;5.63;;;23.40;71.00;;;;;;4192142;28;20121;-63
2021/08/13 03:56:22;;;;;;;9.10;7.90;;;23.40;71.00;;;;;;4192243;28;20759;-64
2021/08/13 03:58:44;;;;;;;8.32;6.63;;;23.40;71.00;;;;;;4188424;28;20075;-63
2021/08/13 04:01:07;;;;;;;6.63;6.03;;;23.40;71.00;;;;;;4189678;28;20048;-63
2021/08/13 04:03:32;;;;;;;6.65;6.07;;;23.40;70.90;;;;;;4189750;28;20053;-63
2021/08/13 04:05:55;;;;;;;6.85;6.32;;;23.40;71.00;;;;;;4189565;28;20509;-63
2021/08/13 04:08:17;;;;;;;6.50;5.90;;;23.40;70.90;;;;;;4190881;28;20059;-65
2021/08/13 04:10:40;;;;;;;6.93;6.30;;;23.40;71.10;;;;;;4192410;28;20082;-64
2021/08/13 04:13:02;;;;;;;6.60;6.10;;;23.30;71.20;;;;;;4206132;28;20056;-64
2021/08/13 04:15:29;;;;;;;6.72;6.13;;;23.40;71.50;;;;;;4206062;28;20510;-63
2021/08/13 04:17:52;;;;;;;7.88;6.13;;;23.40;71.70;;;;;;4206480;28;20059;-65
2021/08/13 04:20:18;;;;;;;6.43;5.95;;;23.30;71.50;;;;;;4206210;28;20070;-63
2021/08/13 04:22:46;;;;;;;6.60;6.10;;;23.40;71.60;;;;;;4206321;28;20518;-64
2021/08/13 04:25:09;;;;;;;6.38;5.68;;;23.30;71.40;;;;;;4207609;28;20154;-64
2021/08/13 04:27:31;;;;;;;6.38;5.78;;;23.30;71.40;;;;;;4207522;28;20048;-63
2021/08/13 04:29:54;;;;;;;7.05;6.38;;;23.30;72.20;;;;;;4190325;28;20056;-64
2021/08/13 04:32:16;;;;;;;7.00;6.38;;;23.30;71.20;;;;;;4192643;28;20476;-63
2021/08/13 04:34:37;;;;;;;7.03;6.28;;;23.30;71.40;;;;;;4210723;28;20048;-64
2021/08/13 04:37:01;;;;;;;6.13;5.72;;;23.30;71.40;;;;;;4194892;28;20057;-64
2021/08/13 04:39:25;;;;;;;6.45;5.95;;;23.30;71.40;;;;;;4194774;28;20138;-63
2021/08/13 04:41:47;;;;;;;7.03;6.53;;;23.30;71.30;;;;;;4194894;28;20055;-63
2021/08/13 04:44:10;;;;;;;7.47;6.85;;;23.30;71.40;;;;;;4192925;28;20071;-63
2021/08/13 04:46:33;;;;;;;7.25;6.63;;;23.30;71.40;;;;;;4194939;28;20083;-63
2021/08/13 04:48:55;;;;;;;7.30;6.60;;;23.30;71.50;;;;;;4210269;28;20044;-63
2021/08/13 04:51:19;;;;;;;6.85;6.28;;;23.30;71.50;;;;;;4194481;28;20491;-63
2021/08/13 04:53:42;;;;;;;8.02;6.35;;;23.30;71.50;;;;;;4194701;28;20494;-63
2021/08/13 04:56:06;;;;;;;7.47;6.88;;;23.30;71.50;;;;;;4210315;28;20098;-63
2021/08/13 04:58:31;;;;;;;6.93;6.18;;;23.30;71.60;;;;;;4194375;28;20059;-63
2021/08/13 05:00:56;;;;;;;8.07;7.07;;;23.20;71.70;;;;;;4194399;28;20064;-63
2021/08/13 05:03:18;;;;;;;8.05;7.25;;;23.30;72.00;;;;;;4194752;28;20135;-63
2021/08/13 05:05:43;;;;;;;7.35;6.75;;;23.20;71.90;;;;;;4194609;28;20040;-63
2021/08/13 05:08:05;;;;;;;6.47;5.90;;;23.20;71.90;;;;;;4194318;28;20125;-63
2021/08/13 05:10:28;;;;;;;7.00;6.40;;;23.20;71.90;;;;;;4194375;28;20056;-63
2021/08/13 05:12:51;;;;;;;7.63;6.93;;;23.20;71.90;;;;;;4209384;28;20036;-63
2021/08/13 05:15:14;;;;;;;10.13;6.68;;;23.30;71.80;;;;;;4209913;28;20499;-63
2021/08/13 05:17:40;;;;;;;8.77;7.25;;;23.20;71.80;;;;;;4207990;28;20916;-63
2021/08/13 05:20:04;;;;;;;8.63;7.75;;;23.20;71.90;;;;;;4208950;28;20097;-63
2021/08/13 05:22:26;;;;;;;10.05;7.85;;;23.20;71.90;;;;;;4208777;28;20093;-63
2021/08/13 05:24:48;;;;;;;8.60;7.70;;;23.20;72.10;;;;;;4208796;28;20549;-63
2021/08/13 05:27:11;;;;;;;9.20;7.90;;;23.20;72.40;;;;;;4208568;28;20058;-64
2021/08/13 05:29:37;;;;;;;8.00;7.40;;;23.30;72.40;;;;;;4210195;28;20631;-64
2021/08/13 05:31:59;;;;;;;7.85;6.97;;;23.20;72.20;;;;;;4187849;28;20056;-64
2021/08/13 05:34:22;;;;;;;8.25;7.45;;;23.20;72.50;;;;;;4194198;28;20059;-65
2021/08/13 05:36:46;;;;;;;8.20;7.30;;;23.20;72.40;;;;;;4193832;28;20055;-64
2021/08/13 05:39:08;;;;;;;8.40;7.60;;;23.20;72.30;;;;;;4205797;28;20506;-64
2021/08/13 05:41:30;;;;;;;9.20;8.40;;;23.20;72.30;;;;;;4207795;28;20841;-64
2021/08/13 05:43:52;;;;;;;8.18;7.20;;;23.20;72.50;;;;;;4192631;28;20052;-63
2021/08/13 05:46:16;;;;;;;8.90;8.00;;;23.30;72.60;;;;;;4193965;28;20518;-64
2021/08/13 05:48:38;;;;;;;8.00;7.25;;;23.30;72.70;;;;;;4193870;28;20044;-64
2021/08/13 05:51:00;;;;;;;8.77;7.97;;;23.30;72.80;;;;;;4177009;28;20495;-62
2021/08/13 05:53:24;;;;;;;8.60;7.80;;;23.30;72.80;;;;;;4177269;28;20077;-64
2021/08/13 05:55:46;;;;;;;8.95;8.15;;;23.30;73.10;;;;;;4177327;28;20076;-64
2021/08/13 05:58:09;;;;;;;9.63;8.73;;;23.30;73.00;;;;;;4191936;28;20098;-65
2021/08/13 06:00:31;;;;;;;9.90;9.10;;;23.30;73.80;;;;;;4184619;28;20056;-65
2021/08/13 06:03:01;;;;;;;9.98;8.98;;;23.30;72.90;;;;;;4191263;28;20406;-65
2021/08/13 06:05:26;;;;;;;9.60;8.70;;;23.30;73.00;;;;;;4190820;28;20048;-65
2021/08/13 06:07:51;;;;;;;9.63;8.73;;;23.30;73.10;;;;;;4190659;28;20143;-63
2021/08/13 06:10:14;;;;;;;9.77;8.85;;;23.40;73.10;;;;;;4174851;28;20744;-65
2021/08/13 06:12:36;;;;;;;10.48;9.38;;;23.40;73.20;;;;;;4185664;28;20086;-66
2021/08/13 06:14:59;;;;;;;10.30;9.30;;;23.40;73.10;;;;;;4191225;28;20559;-66
2021/08/13 06:17:24;;;;;;;11.18;8.80;;;23.40;73.00;;;;;;4191477;28;20415;-65
2021/08/13 06:19:48;;;;;;;10.15;9.18;;;23.40;72.90;;;;;;4192397;28;20056;-65
2021/08/13 06:22:10;;;;;;;10.13;9.13;;;23.40;72.70;;;;;;4190694;28;20082;-65
2021/08/13 06:24:32;;;;;;;10.32;9.32;;;23.40;72.50;;;;;;4192470;28;20048;-67
2021/08/13 06:26:59;;;;;;;9.95;9.00;;;23.40;72.50;;;;;;4180714;28;20056;-67
2021/08/13 06:29:22;;;;;;;10.68;9.10;;;23.40;72.40;;;;;;4190951;28;20131;-67
2021/08/13 06:31:45;;;;;;;11.15;9.57;;;23.40;72.30;;;;;;4190989;28;20128;-65
2021/08/13 06:34:07;;;;;;;9.93;8.93;;;23.40;72.30;;;;;;4179006;28;20438;-66
2021/08/13 06:36:31;;;;;;;9.13;7.90;;;23.40;72.30;;;;;;4190933;28;20144;-65
2021/08/13 06:38:53;;;;;;;8.98;7.78;;;23.40;72.30;;;;;;4190057;28;20494;-66
2021/08/13 06:41:15;;;;;;;7.85;7.05;;;23.40;72.20;;;;;;4189020;28;20059;-66
2021/08/13 06:44:07;;;;;;;7.28;6.55;;;23.40;72.10;;;;;;4186017;28;20141;-65
2021/08/13 06:46:29;;;;;;;6.50;5.90;;;23.50;72.00;;;;;;4190532;28;20059;-66
2021/08/13 06:48:52;;;;;;;8.35;7.65;;;23.40;71.90;;;;;;4189588;28;20048;-65
2021/08/13 06:51:13;;;;;;;8.18;7.43;;;23.40;71.60;;;;;;4181523;28;20534;-66
2021/08/13 06:53:37;;;;;;;7.72;7.03;;;23.40;71.50;;;;;;4190400;28;20122;-65
2021/08/13 06:55:59;;;;;;;7.65;6.90;;;23.40;71.50;;;;;;4175184;28;20075;-65
2021/08/13 06:58:21;;;;;;;9.07;7.82;;;23.50;71.40;;;;;;4190609;28;20060;-64
2021/08/13 07:00:44;;;;;;;9.07;8.18;;;23.50;71.30;;;;;;4201437;28;20052;-64
2021/08/13 07:03:06;;;;;;;8.90;8.10;;;23.50;71.20;;;;;;4206881;28;20081;-65
2021/08/13 07:05:29;;;;;;;8.93;7.95;;;23.50;71.10;;;;;;4207244;28;20048;-65
2021/08/13 07:07:51;;;;;;;9.38;8.52;;;23.50;71.10;;;;;;4208136;28;20438;-64
2021/08/13 07:10:15;;;;;;;8.77;8.05;;;23.50;71.20;;;;;;4208160;28;20067;-65
2021/08/13 07:12:38;;;;;;;9.68;8.15;;;23.50;71.30;;;;;;4206990;28;20486;-65
2021/08/13 07:15:01;;;;;;;10.00;9.07;;;23.50;71.40;;;;;;4206896;28;20052;-63
2021/08/13 07:17:25;;;;;;;9.15;7.82;;;23.50;71.30;;;;;;4207030;28;20603;-64
2021/08/13 07:19:47;;;;;;;9.23;8.30;;;23.60;71.30;;;;;;4206679;28;20048;-65
2021/08/13 07:22:10;;;;;;;11.05;8.20;;;23.60;71.80;;;;;;4206652;28;20070;-65
2021/08/13 07:24:32;;;;;;;10.15;8.50;;;23.60;71.50;;;;;;4206393;28;20052;-64
2021/08/13 07:26:55;;;;;;;8.77;7.85;;;23.60;71.30;;;;;;4208013;28;20071;-64
2021/08/13 07:29:18;;;;;;;8.98;8.18;;;23.60;71.40;;;;;;4206499;28;20528;-65
2021/08/13 07:31:41;;;;;;;7.93;6.95;;;23.60;71.40;;;;;;4206412;28;20113;-65
2021/08/13 07:34:03;;;;;;;9.88;8.25;;;23.60;71.40;;;;;;4206716;28;20449;-65
2021/08/13 07:36:25;;;;;;;8.82;7.97;;;23.60;71.60;;;;;;4206555;28;20097;-65
2021/08/13 07:38:49;;;;;;;9.25;7.90;;;23.60;71.60;;;;;;4206741;28;20044;-64
2021/08/13 07:41:12;;;;;;;8.98;8.13;;;23.60;71.70;;;;;;4206486;28;20044;-65
2021/08/13 07:43:37;;;;;;;9.02;8.18;;;23.70;71.90;;;;;;4206613;28;20055;-64
2021/08/13 07:45:59;;;;;;;10.32;8.27;;;23.60;71.90;;;;;;4206650;28;21092;-65
2021/08/13 07:48:21;;;;;;;8.95;7.75;;;23.70;72.00;;;;;;4206777;28;20052;-65
2021/08/13 07:50:44;;;;;;;7.35;6.65;;;23.70;72.00;;;;;;4206727;28;20059;-65
2021/08/13 07:53:07;;;;;;;8.05;7.30;;;23.70;72.10;;;;;;4206656;28;20086;-65
2021/08/13 07:55:30;;;;;;;7.63;6.90;;;23.70;72.30;;;;;;4206438;28;20055;-65
2021/08/13 07:57:52;;;;;;;8.85;7.32;;;23.60;72.70;;;;;;4204686;28;20513;-65
2021/08/13 08:00:17;;;;;;;8.60;7.18;;;23.60;72.90;;;;;;4206255;28;20083;-65
2021/08/13 08:02:48;;;;;;;8.00;7.30;;;23.60;73.10;;;;;;4207434;28;20121;-65
2021/08/13 08:05:11;;;;;;;8.43;7.63;;;23.60;73.20;;;;;;4208125;28;20127;-64
2021/08/13 08:07:33;;;;;;;7.20;6.50;;;23.60;73.20;;;;;;4208801;28;20052;-64
2021/08/13 08:09:55;;;;;;;6.90;6.30;;;23.60;73.20;;;;;;4211403;28;20055;-64
2021/08/13 08:12:17;;;;;;;7.30;6.60;;;23.60;73.10;;;;;;4210905;28;20390;-65
2021/08/13 08:14:39;;;;;;;7.00;6.40;;;23.60;73.20;;;;;;4211088;28;20489;-65
2021/08/13 08:17:03;;;;;;;6.45;5.95;;;23.60;73.20;;;;;;4210861;28;20051;-64
2021/08/13 08:19:25;;;;;;;6.80;6.10;;;23.60;73.40;;;;;;4210479;28;20147;-65
2021/08/13 08:21:46;;;;;;;6.32;5.65;;;23.70;73.60;;;;;;4203647;28;20106;-66
2021/08/13 08:24:11;;;;;;;6.10;5.60;;;23.70;73.60;;;;;;4210038;28;20120;-66
2021/08/13 08:26:33;;;;;;;8.13;5.90;;;23.70;73.80;;;;;;4210494;28;20044;-66
2021/08/13 08:28:55;;;;;;;7.85;5.70;;;23.70;73.70;;;;;;4210200;28;20051;-66
2021/08/13 08:31:17;;;;;;;6.22;5.72;;;23.70;73.60;;;;;;4194085;28;20064;-66
2021/08/13 08:33:41;;;;;;;6.15;5.57;;;23.70;73.40;;;;;;4201100;28;20070;-66
2021/08/13 08:36:03;;;;;;;7.20;6.38;;;23.70;73.40;;;;;;4210742;28;20066;-66
2021/08/13 08:38:25;;;;;;;4.97;4.57;;;23.70;74.20;;;;;;4210173;28;20471;-66
2021/08/13 08:40:48;;;;;;;5.47;4.97;;;23.70;73.40;;;;;;4210174;28;20147;-66
2021/08/13 08:43:10;;;;;;;6.45;5.72;;;23.70;73.40;;;;;;4209866;28;20051;-67
2021/08/13 08:45:34;;;;;;;5.45;5.05;;;23.70;73.30;;;;;;4210202;28;20048;-66
2021/08/13 08:48:00;;;;;;;5.20;4.80;;;23.80;74.30;;;;;;4210697;28;20048;-66
2021/08/13 08:50:23;;;;;;;5.93;4.97;;;23.80;73.40;;;;;;4210251;28;20477;-66
2021/08/13 08:52:45;;;;;;;5.25;4.78;;;23.80;73.40;;;;;;4210229;28;20048;-66
2021/08/13 08:55:08;;;;;;;6.10;5.40;;;23.80;73.30;;;;;;4210241;28;20078;-66
2021/08/13 08:57:34;;;;;;;8.52;5.63;;;23.80;73.30;;;;;;4207805;28;20056;-66
2021/08/13 08:59:57;;;;;;;9.73;5.13;;;23.80;73.20;;;;;;4209997;28;20036;-66
2021/08/13 09:02:19;;;;;;;6.80;5.78;;;23.80;73.20;;;;;;4210178;28;20097;-65
2021/08/13 09:04:41;;;;;;;4.88;3.28;;;23.80;73.20;;;;;;4209891;28;20043;-66
2021/08/13 09:07:08;;;;;;;6.75;6.05;;;23.80;73.10;;;;;;4205610;28;20044;-66
2021/08/13 09:09:30;;;;;;;5.80;5.30;;;23.80;73.20;;;;;;4210359;28;20052;-66
2021/08/13 09:11:55;;;;;;;4.30;3.97;;;23.90;73.30;;;;;;4209824;28;20117;-66
2021/08/13 09:14:17;;;;;;;6.40;5.60;;;23.90;73.20;;;;;;4210389;28;20097;-66
2021/08/13 09:16:40;;;;;;;5.68;5.18;;;23.90;73.50;;;;;;4209637;28;20405;-66
2021/08/13 09:19:04;;;;;;;6.38;5.65;;;23.90;73.70;;;;;;4209121;28;20076;-66
2021/08/13 09:21:27;;;;;;;7.07;6.43;;;23.90;73.90;;;;;;4209396;28;20138;-66
2021/08/13 09:23:52;;;;;;;6.30;5.70;;;23.90;74.10;;;;;;4205586;28;20079;-66
2021/08/13 09:26:17;;;;;;;7.43;6.82;;;23.90;74.10;;;;;;4200188;28;20493;-65
2021/08/13 09:29:03;;;;;;;8.88;7.95;;;23.90;74.20;;;;;;4209690;28;20044;-64
2021/08/13 09:32:01;;;;;;;8.68;7.15;;;23.90;74.30;;;;;;4203122;28;20044;-65
2021/08/13 09:34:32;;;;;;;8.63;7.82;;;23.90;74.40;;;;;;4208647;28;20383;-66
2021/08/13 09:36:56;;;;;;;9.43;8.00;;;23.90;74.40;;;;;;4193156;28;20445;-65
2021/08/13 09:39:25;;;;;;;8.32;7.53;;;23.90;74.70;;;;;;4193168;28;20406;-65
2021/08/13 09:41:49;;;;;;;7.25;6.60;;;23.80;74.70;;;;;;4204529;28;20446;-65
2021/08/13 09:44:11;;;;;;;8.05;7.10;;;23.80;74.80;;;;;;4209474;28;20131;-65
2021/08/13 09:46:33;;;;;;;6.93;6.32;;;23.90;74.90;;;;;;4209629;28;20460;-65
2021/08/13 09:49:12;;;;;;;5.60;5.10;;;23.90;74.90;;;;;;4209325;28;20043;-65
2021/08/13 09:51:36;;;;;;;5.63;5.17;;;23.90;74.70;;;;;;4208973;28;20048;-66
2021/08/13 09:53:59;;;;;;;5.60;5.18;;;23.80;74.60;;;;;;4192634;28;20286;-64
2021/08/13 09:56:31;;;;;;;5.50;5.00;;;23.90;74.40;;;;;;4202068;28;20048;-66
2021/08/13 09:58:53;;;;;;;4.72;4.32;;;23.90;74.30;;;;;;4209120;28;20052;-65
2021/08/13 10:01:15;;;;;;;5.38;4.97;;;23.90;74.20;;;;;;4207357;28;20062;-65
2021/08/13 10:03:52;;;;;;;5.20;4.80;;;23.90;74.10;;;;;;4207804;28;20048;-65
2021/08/13 10:06:14;;;;;;;5.22;4.72;;;24.00;74.20;;;;;;4190818;28;20056;-65
2021/08/13 10:08:44;;;;;;;7.32;5.35;;;23.90;74.00;;;;;;4194089;28;20053;-65
2021/08/13 10:11:11;;;;;;;5.30;4.90;;;24.00;74.90;;;;;;4207339;28;20043;-65
2021/08/13 10:13:43;;;;;;;5.20;4.80;;;23.90;74.00;;;;;;4207784;28;20486;-66
2021/08/13 10:16:22;;;;;;;6.15;4.78;;;24.00;74.20;;;;;;4197097;28;20052;-66
2021/08/13 10:18:47;;;;;;;4.43;4.13;;;24.00;74.30;;;;;;4207381;28;20117;-65
2021/08/13 10:21:09;;;;;;;4.68;4.05;;;24.00;74.30;;;;;;4207762;28;20044;-65
2021/08/13 10:23:32;;;;;;;4.88;4.22;;;24.00;74.20;;;;;;4209072;28;20044;-65
2021/08/13 10:25:58;;;;;;;5.13;2.97;;;24.00;73.70;;;;;;4197259;28;20048;-66
2021/08/13 10:28:30;;;;;;;3.90;3.60;;;24.00;73.40;;;;;;4208273;28;20220;-66
2021/08/13 10:31:00;;;;;;;3.75;3.45;;;23.90;72.90;;;;;;4203958;28;20101;-66
2021/08/13 10:33:23;;;;;;;3.72;3.45;;;23.90;72.60;;;;;;4190423;28;20082;-65
2021/08/13 10:35:50;;;;;;;5.45;3.80;;;23.90;72.60;;;;;;4190778;28;20788;-65
2021/08/13 10:38:13;;;;;;;3.83;3.53;;;23.90;72.50;;;;;;4204883;28;20495;-65
2021/08/13 10:40:38;;;;;;;3.40;3.20;;;23.90;72.30;;;;;;4194604;28;20043;-67
2021/08/13 10:43:01;;;;;;;4.18;3.78;;;23.90;72.10;;;;;;4203139;28;20051;-63
2021/08/13 10:45:26;;;;;;;3.58;3.28;;;23.90;71.80;;;;;;4196036;28;20048;-63
2021/08/13 10:47:57;;;;;;;3.70;3.40;;;23.90;71.50;;;;;;4191496;28;20123;-63
2021/08/13 10:50:20;;;;;;;5.60;3.40;;;23.90;71.20;;;;;;4193980;28;20049;-63
2021/08/13 10:52:43;;;;;;;3.08;2.22;;;23.90;71.00;;;;;;4191627;28;20068;-64
2021/08/13 10:55:30;;;;;;;4.32;3.67;;;24.00;70.70;;;;;;4190503;28;20044;-65
2021/08/13 10:57:58;;;;;;;5.07;3.75;;;23.90;70.50;;;;;;4202635;28;20055;-63
2021/08/13 11:00:22;;;;;;;3.38;3.08;;;23.90;70.40;;;;;;4195919;28;20052;-62
2021/08/13 11:03:19;;;;;;;4.32;3.92;;;23.90;70.00;;;;;;4206178;28;20511;-64
2021/08/13 11:05:54;;;;;;;3.38;3.08;;;23.90;68.50;;;;;;4189834;28;20102;-63
2021/08/13 11:08:17;;;;;;;3.08;2.85;;;24.00;68.00;;;;;;4196808;28;20456;-64
2021/08/13 11:10:59;;;;;;;3.92;2.97;;;24.00;67.30;;;;;;4207638;28;20047;-64
2021/08/13 11:13:25;;;;;;;4.90;3.20;;;24.00;66.80;;;;;;4206348;28;20632;-64
2021/08/13 11:15:55;;;;;;;5.40;2.83;;;24.00;66.70;;;;;;4194417;28;20120;-64
2021/08/13 11:18:38;;;;;;;3.25;2.75;;;24.00;66.60;;;;;;4195458;28;20114;-64
2021/08/13 11:21:04;;;;;;;4.90;2.55;;;23.90;65.80;;;;;;4204660;28;20552;-65
2021/08/13 11:23:27;;;;;;;5.38;1.75;;;23.90;65.20;;;;;;4207029;28;20103;-66
2021/08/13 11:25:51;;;;;;;3.35;1.98;;;23.90;65.00;;;;;;4196724;28;20052;-64
2021/08/13 11:28:19;;;;;;;3.13;2.70;;;23.90;65.00;;;;;;4206505;28;20051;-64
2021/08/13 11:31:01;;;;;;;2.33;1.60;;;23.90;65.20;;;;;;4189844;28;20687;-64
2021/08/13 11:33:41;;;;;;;3.65;3.00;;;23.90;65.40;;;;;;4190127;28;20048;-64
2021/08/13 11:36:07;;;;;;;3.40;3.10;;;23.90;65.50;;;;;;4189882;28;20121;-63
2021/08/13 11:39:02;;;;;;;3.97;2.55;;;23.90;65.60;;;;;;4191453;28;20336;-65
2021/08/13 11:41:26;;;;;;;3.17;2.83;;;23.90;65.90;;;;;;4191384;28;20044;-65
2021/08/13 11:44:02;;;;;;;2.45;2.30;;;23.90;66.20;;;;;;4205671;28;20051;-65
2021/08/13 11:46:29;;;;;;;3.55;2.78;;;23.90;67.40;;;;;;4203971;28;20040;-67
2021/08/13 11:48:56;;;;;;;2.97;2.33;;;23.90;66.70;;;;;;4199381;28;20573;-65
2021/08/13 11:51:19;;;;;;;3.70;2.60;;;23.90;67.00;;;;;;4202899;28;20504;-66
2021/08/13 11:53:42;;;;;;;4.28;2.80;;;23.90;67.10;;;;;;4201616;28;20511;-66
2021/08/13 11:56:05;;;;;;;3.78;2.90;;;24.00;67.10;;;;;;4207745;28;20048;-65
2021/08/13 11:58:28;;;;;;;3.15;2.95;;;24.00;66.90;;;;;;4189702;28;20803;-65
2021/08/13 12:01:01;;;;;;;2.97;2.45;;;24.00;67.00;;;;;;4189516;28;20406;-64
2021/08/13 12:03:25;;;;;;;3.90;2.30;;;24.00;67.10;;;;;;4190403;28;20048;-66
2021/08/13 12:05:48;;;;;;;3.15;1.90;;;24.10;67.00;;;;;;4206239;28;20094;-65
2021/08/13 12:08:13;;;;;;;3.20;2.00;;;24.10;67.90;;;;;;4205296;28;20051;-64
2021/08/13 12:10:46;;;;;;;3.38;2.17;;;24.10;66.70;;;;;;4195677;28;20075;-63
2021/08/13 12:13:09;;;;;;;3.08;2.20;;;24.10;66.50;;;;;;4205358;28;20048;-66
2021/08/13 12:15:34;;;;;;;2.35;2.00;;;24.20;66.60;;;;;;4206399;28;20448;-67
2021/08/13 12:17:59;;;;;;;4.78;2.47;;;24.20;66.60;;;;;;4205907;28;20052;-67
2021/08/13 12:20:21;;;;;;;2.65;1.90;;;24.20;66.40;;;;;;4204475;28;20525;-67
2021/08/13 12:22:45;;;;;;;2.17;1.90;;;24.20;64.90;;;;;;4206252;28;20141;-67
2021/08/13 12:25:09;;;;;;;3.22;1.83;;;24.20;64.80;;;;;;4205817;28;20149;-67
2021/08/13 12:27:33;;;;;;;2.70;2.05;;;24.30;65.40;;;;;;4206126;28;20131;-67
2021/08/13 12:29:55;;;;;;;2.70;1.92;;;24.20;65.20;;;;;;4206343;28;20067;-67
2021/08/13 12:32:17;;;;;;;1.65;1.42;;;24.20;65.30;;;;;;4207868;28;20056;-67
2021/08/13 12:34:40;;;;;;;2.88;1.80;;;24.30;65.70;;;;;;4207669;28;20048;-67